Time;durP1;ratioP1;P1;durP2;ratioP2;P2;SDS_P1;SDS_P2;PMS_P1;PMS_P2;Temp;Humidity;BMP_temperature;BMP_pressure;BME280_temperature;BME280_humidity;BME280_pressure;Samples;Min_cycle;Max_cycle;Signal;HPM_P1;HPM_P2
2021/03/29 00:00:28;;;;;;;;;;;;;;;19.78;42.43;102203.34;3097759;28;116433;-58
2021/03/29 00:01:59;;;;;;;;;;;;;;;19.80;42.78;102205.91;3096637;28;115681;-58
2021/03/29 00:03:31;;;;;;;;;;;;;;;19.78;42.80;102203.34;3096273;28;115980;-58
2021/03/29 00:05:03;;;;;;;;;;;;;;;19.76;42.85;102205.56;3095619;28;115844;-58
2021/03/29 00:06:35;;;;;;;;;;;;;;;19.79;42.94;102204.19;3089740;28;116265;-57
2021/03/29 00:08:16;;;;;;;;;;;;;;;19.80;42.69;102209.53;3091798;28;115030;-57
2021/03/29 00:09:48;;;;;;;;;;;;;;;19.79;43.12;102215.41;3124066;27;116238;-58
2021/03/29 00:11:20;;;;;;;;;;;;;;;19.78;43.13;102213.72;3104046;27;114038;-58
2021/03/29 00:12:51;;;;;;;;;;;;;;;19.78;43.24;102217.38;3088946;28;115578;-57
2021/03/29 00:14:23;;;;;;;;;;;;;;;19.78;43.20;102214.56;3103699;28;113981;-57
2021/03/29 00:15:55;;;;;;;;;;;;;;;19.77;43.18;102207.25;3092761;28;114088;-58
2021/03/29 00:17:26;;;;;;;;;;;;;;;19.78;43.02;102206.16;3109220;28;114217;-58
2021/03/29 00:18:57;;;;;;;;;;;;;;;19.77;43.61;102218.47;3103298;28;113801;-58
2021/03/29 00:20:30;;;;;;;;;;;;;;;19.76;43.87;102213.97;3098063;28;114137;-58
2021/03/29 00:22:01;;;;;;;;;;;;;;;19.75;43.46;102212.31;3100311;28;114344;-57
2021/03/29 00:23:32;;;;;;;;;;;;;;;19.76;43.56;102218.78;3092759;28;114841;-57
2021/03/29 00:25:04;;;;;;;;;;;;;;;19.74;43.25;102213.44;3092886;28;114542;-58
2021/03/29 00:26:36;;;;;;;;;;;;;;;19.73;43.59;102205.28;3098124;28;113912;-58
2021/03/29 00:28:07;;;;;;;;;;;;;;;19.75;43.59;102223.53;3095920;28;114729;-57
2021/03/29 00:29:39;;;;;;;;;;;;;;;19.77;43.79;102215.69;3094926;28;114297;-57
2021/03/29 00:31:11;;;;;;;;;;;;;;;19.76;43.61;102225.19;3096355;28;113871;-57
2021/03/29 00:32:43;;;;;;;;;;;;;;;19.74;43.92;102221.84;3095919;28;114935;-57
2021/03/29 00:34:14;;;;;;;;;;;;;;;19.72;43.68;102218.44;3118701;27;115103;-58
2021/03/29 00:35:47;;;;;;;;;;;;;;;19.73;43.81;102220.16;3097867;27;115232;-58
2021/03/29 00:37:19;;;;;;;;;;;;;;;19.75;43.63;102211.47;3092567;28;115138;-57
2021/03/29 00:38:50;;;;;;;;;;;;;;;19.73;43.92;102213.69;3081630;28;115195;-58
2021/03/29 00:40:22;;;;;;;;;;;;;;;19.72;44.02;102224.06;3087047;28;117449;-58
2021/03/29 00:41:53;;;;;;;;;;;;;;;19.76;43.82;102210.38;3117690;27;115140;-59
2021/03/29 00:43:26;;;;;;;;;;;;;;;19.77;43.93;102201.66;3105734;27;115277;-60
2021/03/29 00:44:58;;;;;;;;;;;;;;;19.79;44.30;102207.84;3082807;28;114521;-59
2021/03/29 00:46:29;;;;;;;;;;;;;;;19.78;43.85;102206.16;3103507;27;115129;-58
2021/03/29 00:48:01;;;;;;;;;;;;;;;19.80;43.82;102201.13;3095351;27;115927;-57
2021/03/29 00:49:32;;;;;;;;;;;;;;;19.79;43.85;102201.41;3086632;28;115203;-59
2021/03/29 00:51:13;;;;;;;;;;;;;;;19.79;43.52;102204.19;3086752;28;115050;-57
2021/03/29 00:52:44;;;;;;;;;;;;;;;19.76;43.39;102210.38;3115538;27;115525;-57
2021/03/29 00:54:15;;;;;;;;;;;;;;;19.76;43.92;102210.38;3093319;28;114192;-57
2021/03/29 00:55:47;;;;;;;;;;;;;;;19.76;43.88;102211.19;3106024;28;116018;-58
2021/03/29 00:57:19;;;;;;;;;;;;;;;19.75;44.11;102212.31;3099615;27;115693;-58
2021/03/29 00:58:50;;;;;;;;;;;;;;;19.71;44.21;102218.75;3096284;28;115905;-58
2021/03/29 01:00:31;;;;;;;;;;;;;;;19.72;44.35;102218.44;3099908;28;115675;-58
2021/03/29 01:02:02;;;;;;;;;;;;;;;19.72;44.21;102210.03;3103102;27;116038;-58
2021/03/29 01:03:35;;;;;;;;;;;;;;;19.70;44.11;102219.84;3096082;28;116020;-57
2021/03/29 01:05:09;;;;;;;;;;;;;;;19.66;43.67;102219.56;3095578;28;115752;-58
2021/03/29 01:06:42;;;;;;;;;;;;;;;19.65;43.79;102206.66;3120911;27;115864;-57
2021/03/29 01:08:14;;;;;;;;;;;;;;;19.64;43.63;102215.31;3110633;27;116606;-58
2021/03/29 01:09:46;;;;;;;;;;;;;;;19.67;43.53;102212.00;3088266;28;114799;-58
2021/03/29 01:11:22;;;;;;;;;;;;;;;19.62;43.65;102210.00;3110667;27;115841;-58
2021/03/29 01:12:59;;;;;;;;;;;;;;;19.60;43.93;102211.38;3090557;28;116056;-58
2021/03/29 01:14:36;;;;;;;;;;;;;;;19.61;43.82;102211.13;3086305;28;115668;-57
2021/03/29 01:16:08;;;;;;;;;;;;;;;19.58;44.06;102208.00;3090271;28;115878;-58
2021/03/29 01:17:40;;;;;;;;;;;;;;;19.58;43.92;102211.63;3085173;28;113847;-57
2021/03/29 01:19:17;;;;;;;;;;;;;;;19.57;44.09;102212.78;3087190;28;116643;-57
2021/03/29 01:20:48;;;;;;;;;;;;;;;19.57;43.93;102218.38;3086413;28;114161;-57
2021/03/29 01:22:22;;;;;;;;;;;;;;;19.57;44.04;102207.16;3087137;28;113773;-57
2021/03/29 01:24:00;;;;;;;;;;;;;;;19.55;44.07;102220.59;3079490;28;113753;-58
2021/03/29 01:25:34;;;;;;;;;;;;;;;19.57;43.96;102215.59;3087005;28;114095;-57
2021/03/29 01:27:05;;;;;;;;;;;;;;;19.56;43.79;102213.88;3107228;28;113983;-58
2021/03/29 01:28:37;;;;;;;;;;;;;;;19.52;44.17;102209.94;3093412;28;113918;-58
2021/03/29 01:30:09;;;;;;;;;;;;;;;19.54;43.76;102207.69;3091715;28;113992;-58
2021/03/29 01:31:41;;;;;;;;;;;;;;;19.52;44.25;102207.97;3087248;28;113671;-57
2021/03/29 01:33:13;;;;;;;;;;;;;;;19.51;44.04;102216.66;3111171;27;114038;-57
2021/03/29 01:34:45;;;;;;;;;;;;;;;19.51;43.77;102217.50;3096837;28;114259;-58
2021/03/29 01:36:17;;;;;;;;;;;;;;;19.52;44.33;102230.41;3093846;28;114616;-58
2021/03/29 01:37:49;;;;;;;;;;;;;;;19.51;44.20;102217.50;3093548;28;114114;-57
2021/03/29 01:39:22;;;;;;;;;;;;;;;19.50;44.32;102214.97;3087178;28;115080;-58
2021/03/29 01:40:53;;;;;;;;;;;;;;;19.53;44.17;102223.66;3085862;28;115153;-58
2021/03/29 01:42:24;;;;;;;;;;;;;;;19.50;44.04;102220.56;3094164;28;115108;-57
2021/03/29 01:43:56;;;;;;;;;;;;;;;19.47;44.24;102218.31;3090149;28;115253;-58
2021/03/29 01:45:27;;;;;;;;;;;;;;;19.49;43.95;102221.66;3084058;28;115258;-57
2021/03/29 01:46:59;;;;;;;;;;;;;;;19.46;44.19;102214.66;3084803;28;115153;-57
2021/03/29 01:48:30;;;;;;;;;;;;;;;19.45;44.23;102217.72;3110086;27;115277;-57
2021/03/29 01:50:02;;;;;;;;;;;;;;;19.45;44.05;102214.91;3105642;27;115144;-58
2021/03/29 01:51:33;;;;;;;;;;;;;;;19.46;44.01;102213.81;3096988;28;115618;-57
2021/03/29 01:53:05;;;;;;;;;;;;;;;19.43;44.06;102208.72;3086896;28;115414;-57
2021/03/29 01:54:37;;;;;;;;;;;;;;;19.43;44.11;102212.41;3096213;28;115827;-58
2021/03/29 01:56:08;;;;;;;;;;;;;;;19.41;44.21;102206.19;3073083;28;115202;-58
2021/03/29 01:57:39;;;;;;;;;;;;;;;19.43;43.92;102211.53;3073026;28;115265;-58
2021/03/29 01:59:10;;;;;;;;;;;;;;;19.40;44.24;102204.50;3108774;27;115212;-58
2021/03/29 02:00:43;;;;;;;;;;;;;;;19.42;44.16;102205.06;3093839;27;116027;-58
2021/03/29 02:02:14;;;;;;;;;;;;;;;19.40;44.12;102200.84;3085280;28;115942;-58
2021/03/29 02:03:45;;;;;;;;;;;;;;;19.38;44.22;102212.34;3086384;28;114999;-59
2021/03/29 02:05:17;;;;;;;;;;;;;;;19.39;44.17;102207.59;3085818;28;114823;-58
2021/03/29 02:06:49;;;;;;;;;;;;;;;19.36;44.13;102208.94;3082349;28;115778;-57
2021/03/29 02:08:21;;;;;;;;;;;;;;;19.35;44.46;102212.03;3086782;28;115308;-58
2021/03/29 02:09:53;;;;;;;;;;;;;;;19.36;44.46;102208.09;3073683;28;115914;-58
2021/03/29 02:11:24;;;;;;;;;;;;;;;19.38;44.13;102209.53;3082730;28;119607;-58
2021/03/29 02:12:59;;;;;;;;;;;;;;;19.36;44.41;102208.94;3097993;28;115707;-58
2021/03/29 02:14:31;;;;;;;;;;;;;;;19.36;44.13;102206.16;3089709;28;115864;-58
2021/03/29 02:16:04;;;;;;;;;;;;;;;19.36;44.58;102197.75;3086675;28;117878;-57
2021/03/29 02:17:37;;;;;;;;;;;;;;;19.35;44.31;102192.41;3109610;27;115764;-58
2021/03/29 02:19:09;;;;;;;;;;;;;;;19.37;44.69;102207.00;3093175;28;116429;-58
2021/03/29 02:20:41;;;;;;;;;;;;;;;19.37;44.42;102204.19;3109420;27;114665;-57
2021/03/29 02:22:12;;;;;;;;;;;;;;;19.37;44.29;102204.19;3108762;27;116449;-58
2021/03/29 02:23:55;;;;;;;;;;;;;;;19.39;44.27;102199.19;3086960;28;113871;-57
2021/03/29 02:25:28;;;;;;;;;;;;;;;19.39;44.25;102201.97;3086306;28;113634;-58
2021/03/29 02:26:59;;;;;;;;;;;;;;;19.36;44.17;102192.13;3110275;27;115412;-58
2021/03/29 02:28:31;;;;;;;;;;;;;;;19.35;44.58;102200.84;3089044;28;113849;-58
2021/03/29 02:30:07;;;;;;;;;;;;;;;19.36;44.33;102205.28;3105730;28;114134;-57
2021/03/29 02:31:38;;;;;;;;;;;;;;;19.35;44.57;102203.63;3107056;27;114507;-57
2021/03/29 02:33:11;;;;;;;;;;;;;;;19.35;44.55;102195.22;3084358;28;113705;-58
2021/03/29 02:34:42;;;;;;;;;;;;;;;19.33;44.29;102205.84;3098663;28;113984;-58
2021/03/29 02:36:15;;;;;;;;;;;;;;;19.32;44.41;102198.53;3090246;28;114160;-58
2021/03/29 02:37:48;;;;;;;;;;;;;;;19.32;44.50;102198.53;3108192;27;114389;-58
2021/03/29 02:39:20;;;;;;;;;;;;;;;19.32;44.31;102205.00;3086582;28;113959;-57
2021/03/29 02:40:52;;;;;;;;;;;;;;;19.34;44.42;102208.38;3109707;27;113901;-58
2021/03/29 02:42:24;;;;;;;;;;;;;;;19.30;44.57;102203.59;3093356;28;113902;-58
2021/03/29 02:43:56;;;;;;;;;;;;;;;19.30;44.47;102195.19;3090831;28;114045;-58
2021/03/29 02:45:29;;;;;;;;;;;;;;;19.33;44.48;102200.25;3100060;28;115176;-58
2021/03/29 02:47:01;;;;;;;;;;;;;;;19.33;44.44;102206.69;3088646;28;115183;-57
2021/03/29 02:48:33;;;;;;;;;;;;;;;19.32;44.84;102205.00;3082572;28;114057;-58
2021/03/29 02:50:08;;;;;;;;;;;;;;;19.31;44.78;102199.66;3096295;28;115757;-57
2021/03/29 02:51:41;;;;;;;;;;;;;;;19.30;44.62;102201.63;3093319;28;115071;-57
2021/03/29 02:53:17;;;;;;;;;;;;;;;19.32;44.72;102209.75;3094017;28;115492;-57
2021/03/29 02:54:50;;;;;;;;;;;;;;;19.31;44.61;102202.47;3097660;28;115305;-58
2021/03/29 02:56:23;;;;;;;;;;;;;;;19.32;44.63;102206.94;3092636;28;115113;-57
2021/03/29 02:57:58;;;;;;;;;;;;;;;19.29;44.78;102204.69;3089188;28;115182;-58
2021/03/29 02:59:29;;;;;;;;;;;;;;;19.28;44.79;102201.06;3100251;28;115895;-57
2021/03/29 03:01:01;;;;;;;;;;;;;;;19.26;44.74;102196.84;3120923;27;114034;-57
2021/03/29 03:02:33;;;;;;;;;;;;;;;19.26;44.98;102197.66;3097942;27;115126;-57
2021/03/29 03:04:04;;;;;;;;;;;;;;;19.27;44.78;102195.72;3110302;27;115044;-57
2021/03/29 03:05:37;;;;;;;;;;;;;;;19.26;44.64;102197.66;3097749;27;115827;-57
2021/03/29 03:07:08;;;;;;;;;;;;;;;19.26;44.80;102194.03;3109460;27;115662;-57
2021/03/29 03:08:40;;;;;;;;;;;;;;;19.26;44.86;102208.88;3095366;28;117162;-57
2021/03/29 03:10:12;;;;;;;;;;;;;;;19.25;45.12;102206.34;3105232;27;115738;-57
2021/03/29 03:11:45;;;;;;;;;;;;;;;19.26;44.90;102197.66;3091176;28;114594;-57
2021/03/29 03:13:16;;;;;;;;;;;;;;;19.22;45.24;102204.06;3097471;28;116534;-57
2021/03/29 03:14:47;;;;;;;;;;;;;;;19.25;44.89;102206.34;3097430;28;117028;-58
2021/03/29 03:16:19;;;;;;;;;;;;;;;19.25;45.17;102203.56;3093961;28;114507;-57
2021/03/29 03:17:51;;;;;;;;;;;;;;;19.24;45.11;102210.25;3109685;27;115717;-57
2021/03/29 03:19:22;;;;;;;;;;;;;;;19.23;45.42;102205.78;3076521;28;115793;-57
2021/03/29 03:20:53;;;;;;;;;;;;;;;19.24;45.12;102207.47;3078533;28;114377;-57
2021/03/29 03:22:24;;;;;;;;;;;;;;;19.22;45.33;102212.47;3093015;28;114953;-57
2021/03/29 03:23:56;;;;;;;;;;;;;;;19.22;45.38;102206.88;3090513;28;116357;-57
2021/03/29 03:25:28;;;;;;;;;;;;;;;19.22;45.29;102209.69;3102185;27;115998;-57
2021/03/29 03:27:03;;;;;;;;;;;;;;;19.20;45.22;102200.72;3097141;28;116162;-58
2021/03/29 03:28:34;;;;;;;;;;;;;;;19.23;45.09;102217.81;3078596;28;115366;-57
2021/03/29 03:30:06;;;;;;;;;;;;;;;19.21;45.34;102213.63;3088974;28;114223;-57
2021/03/29 03:31:37;;;;;;;;;;;;;;;19.20;45.29;102218.38;3090497;28;113822;-57
2021/03/29 03:33:09;;;;;;;;;;;;;;;19.21;45.30;102219.22;3091152;28;114412;-58
2021/03/29 03:34:40;;;;;;;;;;;;;;;19.19;45.22;102216.69;3091537;28;113974;-57
2021/03/29 03:36:16;;;;;;;;;;;;;;;19.21;45.10;102222.03;3102591;27;114662;-57
2021/03/29 03:37:51;;;;;;;;;;;;;;;19.20;45.33;102220.31;3091964;27;113954;-57
2021/03/29 03:39:23;;;;;;;;;;;;;;;19.20;45.16;102228.72;3086920;28;114024;-57
2021/03/29 03:41:00;;;;;;;;;;;;;;;19.22;45.17;102226.47;3092054;28;113815;-57
2021/03/29 03:42:31;;;;;;;;;;;;;;;19.20;45.17;102231.53;3085703;28;113905;-57
2021/03/29 03:44:03;;;;;;;;;;;;;;;19.19;45.11;102236.28;3085344;28;113878;-57
2021/03/29 03:45:44;;;;;;;;;;;;;;;19.18;44.95;102228.13;3085556;28;114197;-57
2021/03/29 03:47:15;;;;;;;;;;;;;;;19.19;45.23;102229.84;3109347;27;114130;-57
2021/03/29 03:48:47;;;;;;;;;;;;;;;19.20;45.10;102229.56;3089326;28;113952;-58
2021/03/29 03:50:19;;;;;;;;;;;;;;;19.19;45.26;102241.88;3087572;28;114589;-57
2021/03/29 03:51:51;;;;;;;;;;;;;;;19.18;45.24;102236.53;3092475;28;114969;-58
2021/03/29 03:53:22;;;;;;;;;;;;;;;19.17;45.18;102235.69;3089843;28;115477;-57
2021/03/29 03:54:55;;;;;;;;;;;;;;;19.15;45.10;102245.50;3084986;28;115349;-58
2021/03/29 03:56:30;;;;;;;;;;;;;;;19.14;45.20;102246.59;3109595;27;115145;-58
2021/03/29 03:58:02;;;;;;;;;;;;;;;19.15;45.20;102239.91;3097270;27;115018;-58
2021/03/29 03:59:34;;;;;;;;;;;;;;;19.17;45.27;102248.88;3090402;28;115437;-57
2021/03/29 04:01:07;;;;;;;;;;;;;;;19.15;45.30;102253.91;3113383;27;115130;-58
2021/03/29 04:02:39;;;;;;;;;;;;;;;19.13;45.16;102245.75;3095313;28;115198;-58
2021/03/29 04:04:10;;;;;;;;;;;;;;;19.12;45.14;102244.09;3087823;28;115142;-58
2021/03/29 04:05:41;;;;;;;;;;;;;;;19.10;45.31;102238.75;3086955;28;114867;-58
2021/03/29 04:07:32;;;;;;;;;;;;;;;19.10;45.22;102241.53;3088080;28;117576;-58
2021/03/29 04:09:03;;;;;;;;;;;;;;;19.09;45.25;102253.00;3090831;28;115447;-58
2021/03/29 04:12:10;;;;;;;;;;;;;;;19.06;45.16;102251.59;3085398;28;115153;-58
2021/03/29 04:13:41;;;;;;;;;;;;;;;19.06;44.98;102242.34;3096064;28;114220;-58
2021/03/29 04:15:13;;;;;;;;;;;;;;;19.04;45.05;102248.19;3088589;28;115737;-58
2021/03/29 04:16:44;;;;;;;;;;;;;;;19.05;45.12;102244.28;3083540;28;115542;-58
2021/03/29 04:18:15;;;;;;;;;;;;;;;19.07;44.79;102244.03;3077980;28;115673;-58
2021/03/29 04:19:47;;;;;;;;;;;;;;;19.07;45.07;102244.03;3085689;28;115568;-58
2021/03/29 04:21:18;;;;;;;;;;;;;;;19.03;45.04;102245.69;3093227;28;114719;-58
2021/03/29 04:22:49;;;;;;;;;;;;;;;19.03;45.00;102251.28;3094509;28;115682;-57
2021/03/29 04:24:20;;;;;;;;;;;;;;;19.04;45.14;102252.97;3093450;28;114880;-58
2021/03/29 04:25:51;;;;;;;;;;;;;;;19.03;45.21;102256.91;3094176;28;116276;-58
2021/03/29 04:27:22;;;;;;;;;;;;;;;19.00;45.15;102266.66;3085323;28;116373;-58
2021/03/29 04:28:54;;;;;;;;;;;;;;;18.99;45.06;102259.34;3120158;27;116264;-58
2021/03/29 04:30:25;;;;;;;;;;;;;;;18.97;45.23;102258.78;3088399;27;115799;-58
2021/03/29 04:31:57;;;;;;;;;;;;;;;18.98;45.13;102260.50;3091170;28;116037;-57
2021/03/29 04:33:28;;;;;;;;;;;;;;;19.00;45.10;102263.00;3103828;28;114604;-57
2021/03/29 04:34:59;;;;;;;;;;;;;;;19.00;44.92;102266.66;3087738;28;116858;-57
2021/03/29 04:36:30;;;;;;;;;;;;;;;19.02;45.13;102266.41;3104602;27;115919;-58
2021/03/29 04:38:02;;;;;;;;;;;;;;;18.99;45.20;102262.16;3092306;28;114310;-57
2021/03/29 04:39:33;;;;;;;;;;;;;;;18.99;44.91;102266.91;3099967;28;113859;-58
2021/03/29 04:41:05;;;;;;;;;;;;;;;18.97;45.07;102252.34;3101241;27;114379;-58
2021/03/29 04:42:36;;;;;;;;;;;;;;;18.97;44.91;102252.34;3084073;28;114039;-58
2021/03/29 04:44:08;;;;;;;;;;;;;;;18.95;45.10;102255.41;3096000;28;114318;-57
2021/03/29 04:45:39;;;;;;;;;;;;;;;18.94;45.24;102250.09;3094142;28;113885;-57
2021/03/29 04:47:10;;;;;;;;;;;;;;;18.92;45.07;102250.34;3090006;28;114078;-58
2021/03/29 04:48:41;;;;;;;;;;;;;;;18.93;45.13;102259.59;3090379;28;114083;-58
2021/03/29 04:50:14;;;;;;;;;;;;;;;18.92;45.13;102252.28;3083107;28;114446;-58
2021/03/29 04:51:45;;;;;;;;;;;;;;;18.92;45.27;102253.16;3085026;28;114155;-58
2021/03/29 04:53:16;;;;;;;;;;;;;;;18.93;45.32;102252.03;3110749;27;113955;-58
2021/03/29 04:54:48;;;;;;;;;;;;;;;18.91;45.21;102251.44;3098062;27;115450;-58
2021/03/29 04:56:19;;;;;;;;;;;;;;;18.94;45.26;102256.50;3087143;28;115214;-57
2021/03/29 04:57:50;;;;;;;;;;;;;;;18.93;45.52;102256.78;3095577;28;114590;-57
2021/03/29 04:59:22;;;;;;;;;;;;;;;18.90;45.34;102252.56;3097958;28;115017;-57
2021/03/29 05:00:53;;;;;;;;;;;;;;;18.92;45.54;102255.94;3109354;28;115491;-57
2021/03/29 05:02:24;;;;;;;;;;;;;;;18.90;45.73;102257.31;3095276;28;115886;-58
2021/03/29 05:03:55;;;;;;;;;;;;;;;18.90;45.43;102260.94;3099810;28;115130;-58
2021/03/29 05:05:26;;;;;;;;;;;;;;;18.90;45.64;102263.75;3091891;28;115196;-57
2021/03/29 05:06:57;;;;;;;;;;;;;;;18.87;45.77;102255.03;3076098;28;115086;-57
2021/03/29 05:08:28;;;;;;;;;;;;;;;18.88;46.12;102257.59;3096719;28;115135;-58
2021/03/29 05:10:00;;;;;;;;;;;;;;;18.89;45.88;102267.69;3097070;28;116403;-57
2021/03/29 05:11:45;;;;;;;;;;;;;;;18.90;45.99;102263.75;3084646;28;114145;-57
2021/03/29 05:13:16;;;;;;;;;;;;;;;18.88;46.07;102260.38;3095445;28;115135;-57
2021/03/29 05:14:49;;;;;;;;;;;;;;;18.88;46.07;102266.00;3089529;28;115060;-57
2021/03/29 05:16:20;;;;;;;;;;;;;;;18.88;46.00;102267.94;3102034;28;115741;-57
2021/03/29 05:17:51;;;;;;;;;;;;;;;18.87;45.64;102260.66;3090896;28;115872;-57
2021/03/29 05:19:22;;;;;;;;;;;;;;;18.87;46.06;102272.69;3086195;28;115812;-57
2021/03/29 05:20:55;;;;;;;;;;;;;;;18.85;45.91;102274.91;3086793;28;115792;-57
2021/03/29 05:22:26;;;;;;;;;;;;;;;18.86;46.07;102272.94;3111128;28;114737;-57
2021/03/29 05:23:57;;;;;;;;;;;;;;;18.88;46.00;102277.19;3094759;27;115906;-57
2021/03/29 05:25:28;;;;;;;;;;;;;;;18.89;46.17;102287.28;3106302;28;115770;-57
2021/03/29 05:27:00;;;;;;;;;;;;;;;18.96;46.01;102281.47;3094319;28;115731;-57
2021/03/29 05:28:31;;;;;;;;;;;;;;;18.99;46.28;102284.56;3090920;28;115735;-57
2021/03/29 05:30:03;;;;;;;;;;;;;;;19.01;46.27;102276.75;3092661;28;115254;-57
2021/03/29 05:31:40;;;;;;;;;;;;;;;19.05;46.32;102280.72;3087158;28;115809;-57
2021/03/29 05:33:11;;;;;;;;;;;;;;;19.08;46.34;102279.31;3108730;27;115672;-57
2021/03/29 05:34:43;;;;;;;;;;;;;;;19.12;46.28;102285.25;3103145;27;115857;-57
2021/03/29 05:36:15;;;;;;;;;;;;;;;19.14;46.34;102291.44;3073880;28;115869;-57
2021/03/29 05:37:46;;;;;;;;;;;;;;;19.17;46.68;102285.31;3105787;28;115791;-57
2021/03/29 05:39:17;;;;;;;;;;;;;;;19.21;46.85;102297.66;3101767;28;115626;-57
2021/03/29 05:40:50;;;;;;;;;;;;;;;19.24;47.12;102294.31;3092942;28;114447;-57
2021/03/29 05:42:22;;;;;;;;;;;;;;;19.29;47.07;102297.16;3090222;28;114024;-57
2021/03/29 05:43:54;;;;;;;;;;;;;;;19.32;47.06;102296.63;3106591;27;114306;-57
2021/03/29 05:45:29;;;;;;;;;;;;;;;19.36;47.14;102295.81;3096296;28;114240;-57
2021/03/29 05:47:00;;;;;;;;;;;;;;;19.41;46.99;102303.44;3090746;28;113974;-57
2021/03/29 05:48:31;;;;;;;;;;;;;;;19.46;46.97;102298.75;3096277;28;113813;-57
2021/03/29 05:50:05;;;;;;;;;;;;;;;19.51;46.71;102300.75;3107074;28;114519;-57
2021/03/29 05:51:36;;;;;;;;;;;;;;;19.56;46.69;102295.19;3106614;27;114332;-57
2021/03/29 05:53:07;;;;;;;;;;;;;;;19.62;46.23;102299.72;3085035;28;114048;-58
2021/03/29 05:54:39;;;;;;;;;;;;;;;19.67;46.19;102301.72;3092067;28;113989;-57
2021/03/29 05:56:14;;;;;;;;;;;;;;;19.72;46.13;102302.56;3089545;28;113647;-57
2021/03/29 05:59:34;;;;;;;;;;;;;;;19.84;46.68;102303.25;3092275;28;114085;-57
2021/03/29 06:01:05;;;;;;;;;;;;;;;19.88;46.24;102304.38;3100774;28;114104;-57
2021/03/29 06:02:36;;;;;;;;;;;;;;;19.94;46.32;102300.47;3088814;28;114030;-58
2021/03/29 06:04:07;;;;;;;;;;;;;;;20.00;45.91;102298.53;3112124;27;115127;-57
2021/03/29 06:05:38;;;;;;;;;;;;;;;20.04;45.71;102298.84;3093741;28;114300;-57
2021/03/29 06:07:10;;;;;;;;;;;;;;;20.08;45.60;102295.22;3119216;27;115131;-57
2021/03/29 06:08:43;;;;;;;;;;;;;;;20.14;45.60;102298.91;3085081;28;115671;-57
2021/03/29 06:10:14;;;;;;;;;;;;;;;20.19;45.28;102299.78;3114175;27;115098;-57
2021/03/29 06:11:48;;;;;;;;;;;;;;;20.24;45.24;102296.16;3100455;27;115399;-57
2021/03/29 06:13:28;;;;;;;;;;;;;;;20.30;45.97;102300.72;3099071;28;115261;-57
2021/03/29 06:15:00;;;;;;;;;;;;;;;20.33;45.42;102300.16;3110329;27;114139;-57
2021/03/29 06:16:31;;;;;;;;;;;;;;;20.37;45.04;102304.94;3091141;28;115975;-57
2021/03/29 06:18:09;;;;;;;;;;;;;;;20.42;45.12;102295.69;3105964;27;115551;-57
2021/03/29 06:19:50;;;;;;;;;;;;;;;20.47;44.54;102303.28;3095373;28;115180;-57
2021/03/29 06:21:21;;;;;;;;;;;;;;;20.51;44.60;102302.47;3094533;28;115790;-57
2021/03/29 06:22:52;;;;;;;;;;;;;;;20.56;45.31;102305.31;3089597;28;115602;-57
2021/03/29 06:24:23;;;;;;;;;;;;;;;20.60;44.83;102303.63;3086159;28;114995;-57
2021/03/29 06:26:04;;;;;;;;;;;;;;;20.63;44.22;102300.25;3087011;28;116226;-57
2021/03/29 06:27:44;;;;;;;;;;;;;;;20.69;44.04;102312.34;3074518;28;114632;-57
2021/03/29 06:29:18;;;;;;;;;;;;;;;20.74;44.17;102312.38;3074843;28;116349;-57
2021/03/29 06:30:50;;;;;;;;;;;;;;;20.76;44.52;102313.78;3096480;28;114698;-57
2021/03/29 06:32:21;;;;;;;;;;;;;;;20.78;44.22;102311.53;3081919;28;115842;-57
2021/03/29 06:33:52;;;;;;;;;;;;;;;20.79;44.18;102316.03;3088556;28;115981;-57
2021/03/29 06:35:26;;;;;;;;;;;;;;;20.83;43.93;102322.78;3114174;27;115774;-57
2021/03/29 06:37:05;;;;;;;;;;;;;;;20.85;43.64;102314.91;3092368;28;115717;-57
2021/03/29 06:38:40;;;;;;;;;;;;;;;20.88;43.59;102321.13;3109714;27;115649;-58
2021/03/29 06:40:12;;;;;;;;;;;;;;;20.90;44.06;102321.66;3087550;28;115918;-57
2021/03/29 06:41:52;;;;;;;;;;;;;;;20.91;43.76;102328.97;3104424;27;115914;-57
2021/03/29 06:43:34;;;;;;;;;;;;;;;20.94;43.80;102336.88;3098754;28;115866;-57
2021/03/29 06:45:14;;;;;;;;;;;;;;;20.95;43.54;102341.34;3089856;28;116104;-58
2021/03/29 06:46:45;;;;;;;;;;;;;;;20.95;43.12;102332.91;3109071;27;114195;-58
2021/03/29 06:48:18;;;;;;;;;;;;;;;20.99;43.13;102336.84;3095536;28;114077;-57
2021/03/29 06:49:50;;;;;;;;;;;;;;;21.00;43.45;102332.94;3096593;28;113705;-58
2021/03/29 06:51:22;;;;;;;;;;;;;;;21.02;43.16;102347.56;3082011;28;114064;-58
2021/03/29 06:52:53;;;;;;;;;;;;;;;21.02;43.26;102337.16;3081986;28;113953;-58
2021/03/29 06:54:25;;;;;;;;;;;;;;;21.03;42.77;102338.84;3085395;28;114163;-59
2021/03/29 06:55:57;;;;;;;;;;;;;;;21.06;43.28;102343.06;3093033;28;113834;-57
2021/03/29 06:57:29;;;;;;;;;;;;;;;21.05;43.20;102341.38;3098310;28;113957;-56
2021/03/29 06:59:03;;;;;;;;;;;;;;;21.07;43.43;102341.97;3109876;28;114367;-57
2021/03/29 07:00:36;;;;;;;;;;;;;;;21.08;43.11;102343.63;3101013;28;115262;-58
2021/03/29 07:02:07;;;;;;;;;;;;;;;21.08;43.11;102347.28;3114930;27;114208;-58
2021/03/29 07:03:42;;;;;;;;;;;;;;;21.07;42.91;102342.81;3095064;28;114076;-57
2021/03/29 07:05:15;;;;;;;;;;;;;;;21.10;43.29;102347.00;3110266;28;114395;-58
2021/03/29 07:06:46;;;;;;;;;;;;;;;21.09;43.02;102348.97;3085469;28;113942;-57
2021/03/29 07:08:18;;;;;;;;;;;;;;;21.09;43.15;102343.34;3087244;28;113841;-58
2021/03/29 07:09:50;;;;;;;;;;;;;;;21.08;42.96;102350.09;3093427;28;115428;-57
2021/03/29 07:11:21;;;;;;;;;;;;;;;21.08;42.92;102360.47;3089247;28;115520;-58
2021/03/29 07:12:53;;;;;;;;;;;;;;;21.09;42.82;102354.59;3092956;28;115277;-58
2021/03/29 07:14:24;;;;;;;;;;;;;;;21.08;43.15;102358.53;3107900;28;115377;-58
2021/03/29 07:15:58;;;;;;;;;;;;;;;21.08;43.00;102372.56;3084871;28;114280;-58
2021/03/29 07:17:31;;;;;;;;;;;;;;;21.10;42.87;102355.44;3090529;28;114400;-59
2021/03/29 07:19:04;;;;;;;;;;;;;;;21.08;42.93;102352.06;3099121;28;115403;-59
2021/03/29 07:20:35;;;;;;;;;;;;;;;21.07;43.04;102356.84;3097675;28;115234;-59
2021/03/29 07:22:07;;;;;;;;;;;;;;;21.05;42.59;102359.09;3076463;28;114133;-58
2021/03/29 07:23:39;;;;;;;;;;;;;;;21.06;43.02;102368.38;3083374;28;115301;-57
2021/03/29 07:25:12;;;;;;;;;;;;;;;21.05;42.62;102372.28;3092899;28;115854;-58
2021/03/29 07:26:44;;;;;;;;;;;;;;;21.05;42.62;102366.66;3098004;28;115286;-58
2021/03/29 07:28:17;;;;;;;;;;;;;;;21.03;42.52;102371.75;3093446;28;115033;-57
2021/03/29 07:29:52;;;;;;;;;;;;;;;21.02;42.86;102370.03;3089308;28;115249;-56
2021/03/29 07:31:32;;;;;;;;;;;;;;;21.02;42.77;102381.28;3100077;27;116725;-57
2021/03/29 07:33:03;;;;;;;;;;;;;;;21.00;42.77;102372.28;3091823;28;115653;-59
2021/03/29 07:34:41;;;;;;;;;;;;;;;21.01;42.27;102371.16;3110612;27;115134;-57
2021/03/29 07:36:12;;;;;;;;;;;;;;;20.98;42.70;102368.91;3090285;28;114697;-58
2021/03/29 07:37:53;;;;;;;;;;;;;;;20.96;42.73;102373.94;3085307;28;116093;-58
2021/03/29 07:39:34;;;;;;;;;;;;;;;20.91;42.13;102374.78;3112149;27;115976;-58
2021/03/29 07:41:13;;;;;;;;;;;;;;;20.91;42.03;102379.56;3092256;28;116861;-57
2021/03/29 07:42:45;;;;;;;;;;;;;;;20.88;41.90;102377.31;3083799;28;115751;-57
2021/03/29 07:44:18;;;;;;;;;;;;;;;20.89;41.57;102384.63;3094076;28;115631;-58
2021/03/29 07:45:51;;;;;;;;;;;;;;;20.85;41.96;102387.97;3089795;28;115989;-59
2021/03/29 07:47:32;;;;;;;;;;;;;;;20.85;41.65;102387.97;3109752;27;115923;-57
2021/03/29 07:49:03;;;;;;;;;;;;;;;20.84;41.32;102388.25;3095206;27;116254;-58
2021/03/29 07:50:34;;;;;;;;;;;;;;;20.81;41.49;102385.97;3088440;28;117118;-59
2021/03/29 07:52:15;;;;;;;;;;;;;;;20.80;41.33;102385.13;3088730;28;116826;-59
2021/03/29 07:53:47;;;;;;;;;;;;;;;20.79;41.06;102377.84;3080778;28;117128;-58